Time;durP1;ratioP1;P1;durP2;ratioP2;P2;SDS_P1;SDS_P2;PMS_P1;PMS_P2;Temp;Humidity;BMP_temperature;BMP_pressure;BME280_temperature;BME280_humidity;BME280_pressure;Samples;Min_cycle;Max_cycle;Signal;HPM_P1;HPM_P2
2022/06/22 00:01:05;;;;;;;1999.90;999.90;;;17.10;99.90;;;;;;4994883;28;20416;-74
2022/06/22 00:03:33;;;;;;;1999.90;999.90;;;17.10;99.90;;;;;;4995154;28;20496;-73
2022/06/22 00:05:59;;;;;;;1999.90;999.90;;;17.10;99.90;;;;;;4994717;28;20452;-73
2022/06/22 00:08:29;;;;;;;1999.90;999.90;;;17.00;99.90;;;;;;4994762;28;20827;-72
2022/06/22 00:11:02;;;;;;;1999.90;999.90;;;16.70;99.90;;;;;;4994717;28;20457;-72
2022/06/22 00:13:29;;;;;;;1999.90;999.90;;;16.60;99.90;;;;;;4994683;28;20402;-72
2022/06/22 00:16:14;;;;;;;1999.90;999.90;;;16.50;99.90;;;;;;4994322;28;20453;-72
2022/06/22 00:18:42;;;;;;;1999.90;999.90;;;16.50;99.90;;;;;;4994492;28;20419;-72
2022/06/22 00:21:26;;;;;;;1999.90;999.90;;;16.50;99.90;;;;;;4994388;28;20412;-72
2022/06/22 00:23:55;;;;;;;1999.90;999.90;;;16.40;99.90;;;;;;4994497;28;20444;-72
2022/06/22 00:26:24;;;;;;;1999.90;999.90;;;16.40;99.90;;;;;;4994053;28;20442;-72
2022/06/22 00:29:18;;;;;;;1999.90;999.90;;;16.30;99.90;;;;;;4994337;28;20440;-72
2022/06/22 00:31:58;;;;;;;1999.90;999.90;;;16.30;99.90;;;;;;4994543;28;20415;-72
2022/06/22 00:34:30;;;;;;;1999.90;999.90;;;16.20;99.90;;;;;;4994237;28;20939;-73
2022/06/22 00:36:56;;;;;;;1999.90;999.90;;;16.20;99.90;;;;;;4993979;28;20477;-73
2022/06/22 00:39:22;;;;;;;1999.90;999.90;;;16.20;99.90;;;;;;4994167;28;20966;-73
2022/06/22 00:42:18;;;;;;;1999.90;999.90;;;16.20;99.90;;;;;;4994219;28;20180;-72
2022/06/22 00:44:52;;;;;;;1999.90;999.90;;;16.20;99.90;;;;;;4958428;28;20199;-73
2022/06/22 00:47:28;;;;;;;1999.90;999.90;;;16.30;99.90;;;;;;4993881;28;20898;-73
2022/06/22 00:49:57;;;;;;;1999.90;999.90;;;16.20;99.90;;;;;;4993865;28;20469;-72
2022/06/22 00:52:38;;;;;;;1999.90;999.90;;;16.20;99.90;;;;;;4993892;28;20413;-72
2022/06/22 00:55:14;;;;;;;1999.90;999.90;;;16.20;99.90;;;;;;4993676;28;20445;-72
2022/06/22 00:57:41;;;;;;;1999.90;999.90;;;16.20;99.90;;;;;;4993526;28;20408;-72
2022/06/22 01:00:20;;;;;;;1999.90;999.90;;;16.20;99.90;;;;;;4993764;28;20420;-72
2022/06/22 01:02:54;;;;;;;1999.90;999.90;;;16.20;99.90;;;;;;4993725;28;20463;-72
2022/06/22 01:05:35;;;;;;;1999.90;999.90;;;16.20;99.90;;;;;;4993657;28;20432;-72
2022/06/22 01:08:09;;;;;;;1999.90;999.90;;;16.00;99.90;;;;;;4993411;28;20968;-72
2022/06/22 01:10:41;;;;;;;1999.90;999.90;;;16.00;99.90;;;;;;4993294;28;20456;-72
2022/06/22 01:13:18;;;;;;;1999.90;999.90;;;15.80;99.90;;;;;;4993476;28;20421;-71
2022/06/22 01:15:59;;;;;;;1999.90;999.90;;;15.70;99.90;;;;;;4993578;28;20801;-72
2022/06/22 01:18:31;;;;;;;1999.90;999.90;;;15.70;99.90;;;;;;4993472;28;20441;-72
2022/06/22 01:21:16;;;;;;;1999.90;999.90;;;15.60;99.90;;;;;;4993349;28;20413;-72
2022/06/22 01:23:47;;;;;;;1999.90;999.90;;;15.60;99.90;;;;;;4993337;28;20404;-72
2022/06/22 01:26:27;;;;;;;1999.90;999.90;;;15.50;99.90;;;;;;4992817;28;20945;-72
2022/06/22 01:29:02;;;;;;;1999.90;999.90;;;15.50;99.90;;;;;;4993182;28;20401;-72
2022/06/22 01:31:28;;;;;;;1999.90;999.90;;;15.50;99.90;;;;;;4993185;28;20543;-72
2022/06/22 01:33:54;;;;;;;1999.90;999.90;;;15.50;99.90;;;;;;4992985;28;20887;-72
2022/06/22 01:36:29;;;;;;;1999.90;999.90;;;15.50;99.90;;;;;;4992761;28;20407;-72
2022/06/22 01:38:56;;;;;;;1999.90;999.90;;;15.40;99.90;;;;;;4993101;28;20400;-71
2022/06/22 01:41:30;;;;;;;1999.90;999.90;;;15.40;99.90;;;;;;4993046;28;20505;-72
2022/06/22 01:44:14;;;;;;;1999.90;999.90;;;15.30;99.90;;;;;;4992946;28;20398;-72
2022/06/22 01:46:52;;;;;;;1999.90;999.90;;;15.20;99.90;;;;;;4992596;28;20407;-72
2022/06/22 01:49:38;;;;;;;1999.90;999.90;;;15.10;99.90;;;;;;4992795;28;20928;-72
2022/06/22 01:52:14;;;;;;;1999.90;999.90;;;15.20;99.90;;;;;;4992842;28;20460;-71
2022/06/22 01:54:49;;;;;;;1999.90;999.90;;;15.20;99.90;;;;;;4992688;28;20481;-72
2022/06/22 01:57:22;;;;;;;1999.90;999.90;;;15.20;99.90;;;;;;4992458;28;20418;-72
2022/06/22 01:59:50;;;;;;;1999.90;999.90;;;15.20;99.90;;;;;;4992837;28;20778;-72
2022/06/22 02:02:31;;;;;;;1999.90;999.90;;;15.10;99.90;;;;;;4992662;28;20469;-72
2022/06/22 02:05:25;;;;;;;1999.90;999.90;;;15.00;99.90;;;;;;4992528;28;20457;-72
2022/06/22 02:08:07;;;;;;;1999.90;999.90;;;14.80;99.90;;;;;;4992439;28;20413;-71
2022/06/22 02:10:38;;;;;;;1999.90;999.90;;;14.60;99.90;;;;;;4992606;28;20458;-71
2022/06/22 02:13:10;;;;;;;1999.90;999.90;;;14.50;99.90;;;;;;4992549;28;20492;-72
2022/06/22 02:15:38;;;;;;;1999.90;999.90;;;14.50;99.90;;;;;;4992713;28;20471;-72
2022/06/22 02:18:16;;;;;;;1999.90;999.90;;;14.50;99.90;;;;;;4992227;28;20420;-71
2022/06/22 02:20:42;;;;;;;1999.90;999.90;;;14.50;99.90;;;;;;4992537;28;20408;-72
2022/06/22 02:23:20;;;;;;;1999.90;999.90;;;14.60;99.90;;;;;;4995966;28;20467;-73
2022/06/22 02:26:19;;;;;;;1999.90;999.90;;;14.70;99.90;;;;;;4996795;28;20190;-72
2022/06/22 02:28:45;;;;;;;1999.90;999.90;;;14.60;99.90;;;;;;4996685;28;20423;-73
2022/06/22 02:31:11;;;;;;;1999.90;999.90;;;14.50;99.90;;;;;;4996792;28;20471;-72
2022/06/22 02:33:41;;;;;;;1999.90;999.90;;;14.30;99.90;;;;;;4996664;28;20408;-73
2022/06/22 02:36:07;;;;;;;1999.90;999.90;;;14.20;99.90;;;;;;4996021;28;20431;-73
2022/06/22 02:38:33;;;;;;;1999.90;999.90;;;14.20;99.90;;;;;;4996482;28;20503;-73
2022/06/22 02:46:35;;;;;;;1999.90;999.90;;;14.30;99.90;;;;;;4996514;28;20418;-71
2022/06/22 02:49:21;;;;;;;1999.90;999.90;;;14.40;99.90;;;;;;4996546;28;20506;-73
2022/06/22 02:51:48;;;;;;;1999.90;999.90;;;14.40;99.90;;;;;;4996471;28;20448;-72
2022/06/22 02:54:44;;;;;;;1999.90;999.90;;;14.50;99.90;;;;;;4996120;28;20452;-71
2022/06/22 02:57:29;;;;;;;1999.90;999.90;;;14.50;99.90;;;;;;4995799;28;20415;-73
2022/06/22 02:59:56;;;;;;;1999.90;999.90;;;14.60;99.90;;;;;;4996276;28;20906;-73
2022/06/22 03:02:25;;;;;;;1999.90;999.90;;;14.60;99.90;;;;;;4996051;28;20430;-73
2022/06/22 03:04:51;;;;;;;1999.90;999.90;;;14.60;99.90;;;;;;4996033;28;20465;-71
2022/06/22 03:07:21;;;;;;;1999.90;999.90;;;14.60;99.90;;;;;;4995812;28;20419;-72
2022/06/22 03:09:48;;;;;;;1999.90;999.90;;;14.70;99.90;;;;;;4996031;28;20459;-72
2022/06/22 03:12:14;;;;;;;1999.90;999.90;;;14.60;99.90;;;;;;4996050;28;20926;-73
2022/06/22 03:14:51;;;;;;;1999.90;999.90;;;14.60;99.90;;;;;;4996084;28;20842;-73
2022/06/22 03:17:19;;;;;;;1999.90;999.90;;;14.60;99.90;;;;;;4995600;28;20411;-72
2022/06/22 03:19:47;;;;;;;1999.90;999.90;;;14.50;99.90;;;;;;4996135;28;20480;-71
2022/06/22 03:22:19;;;;;;;1999.90;999.90;;;14.40;99.90;;;;;;4996353;28;20420;-73
2022/06/22 03:24:54;;;;;;;1999.90;999.90;;;14.40;99.90;;;;;;4996145;28;20464;-73
2022/06/22 03:27:24;;;;;;;1999.90;999.90;;;14.30;99.90;;;;;;4995718;28;20413;-73
2022/06/22 03:29:57;;;;;;;1999.90;999.90;;;14.20;99.90;;;;;;4995722;28;20458;-72
2022/06/22 03:32:36;;;;;;;1999.90;999.90;;;14.30;99.90;;;;;;4995410;28;20889;-73
2022/06/22 03:35:14;;;;;;;1999.90;999.90;;;14.30;99.90;;;;;;4995438;28;20517;-73
2022/06/22 03:37:56;;;;;;;1999.90;999.90;;;14.30;99.90;;;;;;4995284;28;20406;-73
2022/06/22 03:40:30;;;;;;;1999.90;999.90;;;14.30;99.90;;;;;;4995406;28;20556;-73
2022/06/22 03:43:10;;;;;;;1999.90;999.90;;;14.40;99.90;;;;;;4995285;28;20925;-73
2022/06/22 03:45:42;;;;;;;1999.90;999.90;;;14.50;99.90;;;;;;4995161;28;20426;-72
2022/06/22 03:48:14;;;;;;;1999.90;999.90;;;14.50;99.90;;;;;;4995039;28;20490;-73
2022/06/22 03:50:49;;;;;;;1999.90;999.90;;;14.50;99.90;;;;;;4995334;28;20453;-73
2022/06/22 03:53:29;;;;;;;1999.90;999.90;;;14.60;99.90;;;;;;4995173;28;20414;-73
2022/06/22 03:56:01;;;;;;;1999.90;999.90;;;14.60;99.90;;;;;;4994931;28;20452;-72
2022/06/22 03:58:27;;;;;;;1999.90;999.90;;;14.50;99.90;;;;;;4995394;28;20408;-73
2022/06/22 04:00:53;;;;;;;1999.90;999.90;;;14.60;99.90;;;;;;4995080;28;20416;-73
2022/06/22 04:03:20;;;;;;;1999.90;999.90;;;14.70;99.90;;;;;;4994971;28;20903;-73
2022/06/22 04:05:56;;;;;;;1999.90;999.90;;;14.80;99.90;;;;;;4994749;28;20827;-72
2022/06/22 04:08:35;;;;;;;1999.90;999.90;;;14.80;99.90;;;;;;4995008;28;20886;-73
2022/06/22 04:11:25;;;;;;;1999.90;999.90;;;14.90;99.90;;;;;;4995021;28;20461;-73
2022/06/22 04:14:09;;;;;;;1999.90;999.90;;;14.90;99.90;;;;;;4994878;28;20404;-73
2022/06/22 04:16:38;;;;;;;1999.90;999.90;;;15.00;99.90;;;;;;4994750;28;20885;-73
2022/06/22 04:19:11;;;;;;;1999.90;999.90;;;15.00;99.90;;;;;;4994765;28;20409;-73
2022/06/22 04:21:41;;;;;;;1999.90;999.90;;;15.00;99.90;;;;;;4994782;28;20764;-72
2022/06/22 04:24:13;;;;;;;1999.90;999.90;;;15.00;99.90;;;;;;4994398;28;20411;-72
2022/06/22 04:26:47;;;;;;;1999.90;999.90;;;15.00;99.90;;;;;;4994083;28;20491;-72
2022/06/22 04:29:25;;;;;;;1999.90;999.90;;;15.00;99.90;;;;;;4994294;28;20441;-72
2022/06/22 04:32:11;;;;;;;1999.90;999.90;;;15.00;99.90;;;;;;4994334;28;20400;-72
2022/06/22 04:34:50;;;;;;;1999.90;999.90;;;15.10;99.90;;;;;;4994209;28;20831;-72
2022/06/22 04:37:34;;;;;;;1999.90;999.90;;;15.10;99.90;;;;;;4993968;28;20447;-72
2022/06/22 04:40:24;;;;;;;1999.90;999.90;;;15.20;99.90;;;;;;4994332;28;21049;-72
2022/06/22 04:42:57;;;;;;;1999.90;999.90;;;15.30;99.90;;;;;;4994156;28;20409;-72
2022/06/22 04:45:29;;;;;;;1999.90;999.90;;;15.40;99.90;;;;;;4993363;28;20432;-72
2022/06/22 04:48:10;;;;;;;1999.90;999.90;;;15.50;99.90;;;;;;4993676;28;20459;-72
2022/06/22 04:50:39;;;;;;;1999.90;999.90;;;15.70;99.90;;;;;;4993826;28;20587;-72
2022/06/22 04:53:10;;;;;;;1999.90;999.90;;;15.70;99.90;;;;;;4993985;28;20425;-73
2022/06/22 04:55:38;;;;;;;1999.90;999.90;;;15.80;99.90;;;;;;4994180;28;20479;-72
2022/06/22 04:58:08;;;;;;;1999.90;999.90;;;15.90;99.90;;;;;;4993464;28;20407;-71
2022/06/22 05:00:34;;;;;;;1999.90;999.90;;;15.90;99.90;;;;;;4993718;28;20441;-72
2022/06/22 05:03:09;;;;;;;1999.90;999.90;;;15.90;99.90;;;;;;4993897;28;20950;-71
2022/06/22 05:05:35;;;;;;;1999.90;999.90;;;15.90;99.90;;;;;;4994107;28;20199;-72
2022/06/22 05:08:11;;;;;;;1999.90;999.90;;;15.80;99.90;;;;;;4993749;28;20464;-71
2022/06/22 05:10:46;;;;;;;1999.90;999.90;;;15.80;99.90;;;;;;4993762;28;20471;-72
2022/06/22 05:13:19;;;;;;;1999.90;999.90;;;15.80;99.90;;;;;;4994033;28;20835;-71
2022/06/22 05:15:48;;;;;;;1999.90;999.90;;;15.90;99.90;;;;;;4992202;28;20436;-71
2022/06/22 05:18:29;;;;;;;1999.90;999.90;;;15.90;99.90;;;;;;4993579;28;20413;-71
2022/06/22 05:21:04;;;;;;;1999.90;999.90;;;15.90;99.90;;;;;;4993717;28;20430;-72
2022/06/22 05:23:31;;;;;;;1999.90;999.90;;;15.90;99.90;;;;;;4993475;28;20421;-72
2022/06/22 05:26:04;;;;;;;1999.90;999.90;;;15.90;99.90;;;;;;4993072;28;20919;-73
2022/06/22 05:28:35;;;;;;;1999.90;999.90;;;15.90;99.90;;;;;;4993433;28;20405;-72
2022/06/22 05:31:15;;;;;;;1999.90;999.90;;;16.00;99.90;;;;;;4993262;28;20456;-71
2022/06/22 05:33:46;;;;;;;1999.90;999.90;;;16.10;99.90;;;;;;4993386;28;20409;-72
2022/06/22 05:36:14;;;;;;;1999.90;999.90;;;16.10;99.90;;;;;;4992739;28;20429;-72
2022/06/22 05:38:47;;;;;;;1999.90;999.90;;;16.10;99.90;;;;;;4993059;28;20408;-72
2022/06/22 05:41:18;;;;;;;1999.90;999.90;;;16.10;99.90;;;;;;4993214;28;20455;-72
2022/06/22 05:43:45;;;;;;;1999.90;999.90;;;16.20;99.90;;;;;;4993140;28;20407;-71
2022/06/22 05:46:12;;;;;;;1999.90;999.90;;;16.30;99.90;;;;;;4992869;28;20519;-73
2022/06/22 05:48:44;;;;;;;1999.90;999.90;;;16.40;99.90;;;;;;4993399;28;20907;-73
2022/06/22 05:51:15;;;;;;;1999.90;999.90;;;16.40;99.90;;;;;;4993183;28;20551;-72
2022/06/22 05:54:05;;;;;;;1999.90;999.90;;;16.40;99.90;;;;;;4992869;28;20408;-72
2022/06/22 05:56:45;;;;;;;1999.90;999.90;;;16.50;99.90;;;;;;4991750;28;20848;-72
2022/06/22 05:59:23;;;;;;;1999.90;999.90;;;16.60;99.90;;;;;;4992967;28;20904;-71
2022/06/22 06:02:07;;;;;;;1999.90;999.90;;;16.70;99.90;;;;;;4993318;28;20890;-73
2022/06/22 06:04:41;;;;;;;1999.90;999.90;;;16.60;99.90;;;;;;4993104;28;20463;-72
2022/06/22 06:07:18;;;;;;;1999.90;999.90;;;16.50;99.90;;;;;;4993058;28;20470;-73
2022/06/22 06:09:44;;;;;;;1999.90;999.90;;;16.40;99.90;;;;;;4993400;28;20452;-73
2022/06/22 06:12:33;;;;;;;1999.90;999.90;;;16.30;99.90;;;;;;4993236;28;20451;-72
2022/06/22 06:15:02;;;;;;;1999.90;999.90;;;16.30;99.90;;;;;;4992462;28;20441;-72
2022/06/22 06:17:29;;;;;;;1999.90;999.90;;;16.40;99.90;;;;;;4992286;28;20488;-72
2022/06/22 06:19:57;;;;;;;1999.90;999.90;;;16.50;99.90;;;;;;4992519;28;20417;-72
2022/06/22 06:22:25;;;;;;;1999.90;999.90;;;16.70;99.90;;;;;;4992639;28;20409;-72
2022/06/22 06:27:46;;;;;;;1999.90;999.90;;;16.90;99.90;;;;;;4992626;28;20443;-71
2022/06/22 06:30:30;;;;;;;1999.90;999.90;;;17.10;99.90;;;;;;4992888;28;20456;-71
2022/06/22 06:33:07;;;;;;;1999.90;999.90;;;17.20;99.90;;;;;;4993068;28;20411;-73
2022/06/22 06:35:52;;;;;;;1999.90;999.90;;;17.30;99.90;;;;;;4992333;28;20449;-71
2022/06/22 06:38:27;;;;;;;1999.90;999.90;;;17.40;99.90;;;;;;4992510;28;20486;-72
2022/06/22 06:41:09;;;;;;;1999.90;999.90;;;17.40;99.90;;;;;;4992441;28;20422;-72
2022/06/22 06:43:47;;;;;;;1999.90;999.90;;;17.60;99.90;;;;;;4992600;28;20405;-70
2022/06/22 06:46:19;;;;;;;1999.90;999.90;;;17.70;99.90;;;;;;4992280;28;20424;-71
2022/06/22 06:48:51;;;;;;;1999.90;999.90;;;17.90;99.90;;;;;;4993020;28;20916;-71
2022/06/22 06:51:20;;;;;;;1999.90;999.90;;;18.00;99.90;;;;;;4992545;28;20501;-71
2022/06/22 06:54:06;;;;;;;1999.90;999.90;;;18.10;99.90;;;;;;4992395;28;20772;-72
2022/06/22 06:56:43;;;;;;;1999.90;999.90;;;18.20;99.90;;;;;;4991948;28;20550;-71
2022/06/22 06:59:16;;;;;;;1999.90;999.90;;;18.40;99.90;;;;;;4992258;28;20468;-71
2022/06/22 07:01:44;;;;;;;1999.90;999.90;;;18.50;99.90;;;;;;4992644;28;20772;-72
2022/06/22 07:04:17;;;;;;;1999.90;999.90;;;18.60;99.90;;;;;;4992836;28;20426;-71
2022/06/22 07:06:45;;;;;;;1999.90;999.90;;;18.80;99.90;;;;;;4992197;28;20412;-71
2022/06/22 07:09:34;;;;;;;1999.90;999.90;;;18.90;99.90;;;;;;4995580;28;20420;-72
2022/06/22 07:12:33;;;;;;;1999.90;999.90;;;19.00;99.90;;;;;;4996417;28;20418;-71
2022/06/22 07:15:02;;;;;;;1999.90;999.90;;;19.10;99.90;;;;;;4990264;28;20451;-71
2022/06/22 07:17:29;;;;;;;1999.90;999.90;;;19.30;99.90;;;;;;4997229;28;20415;-71
2022/06/22 07:19:58;;;;;;;1999.90;999.90;;;19.40;99.90;;;;;;4996238;28;20409;-71
2022/06/22 07:22:34;;;;;;;1999.90;999.90;;;19.40;99.90;;;;;;4996260;28;20429;-71
2022/06/22 07:25:17;;;;;;;1999.90;999.90;;;19.30;99.90;;;;;;4995965;28;20833;-71
2022/06/22 07:28:06;;;;;;;1999.90;999.90;;;19.30;99.90;;;;;;4995375;28;20419;-72
2022/06/22 07:30:42;;;;;;;1999.90;999.90;;;19.30;99.90;;;;;;4984945;28;20474;-71
2022/06/22 07:33:32;;;;;;;1999.90;999.90;;;19.40;99.90;;;;;;4995691;28;20411;-72
2022/06/22 07:36:01;;;;;;;1999.90;999.90;;;19.40;99.90;;;;;;4994978;28;20422;-72
2022/06/22 07:38:33;;;;;;;1999.90;999.90;;;19.50;99.90;;;;;;4995094;28;20796;-72
2022/06/22 07:43:45;;;;;;;1999.90;999.90;;;19.70;99.90;;;;;;4995335;28;20415;-71
2022/06/22 07:46:37;;;;;;;1999.90;999.90;;;19.80;99.90;;;;;;4994741;28;20480;-71
2022/06/22 07:49:16;;;;;;;1999.90;999.90;;;19.90;99.90;;;;;;4994578;28;20432;-72
2022/06/22 07:51:58;;;;;;;1999.90;999.90;;;20.00;99.90;;;;;;4995186;28;20405;-72
2022/06/22 07:54:37;;;;;;;1999.90;999.90;;;20.10;99.90;;;;;;4994863;28;20435;-72
2022/06/22 07:57:09;;;;;;;1999.90;999.90;;;20.20;99.90;;;;;;4994632;28;20439;-72
2022/06/22 07:59:59;;;;;;;1999.90;999.90;;;20.10;99.90;;;;;;4995091;28;20405;-72
2022/06/22 08:02:30;;;;;;;1999.90;999.90;;;20.30;99.90;;;;;;4994908;28;20642;-72
2022/06/22 08:05:26;;;;;;;1999.90;999.90;;;20.40;99.90;;;;;;4994806;28;20460;-71
2022/06/22 08:08:20;;;;;;;1999.90;999.90;;;20.30;99.90;;;;;;4993228;28;20436;-70
2022/06/22 08:10:56;;;;;;;1999.90;999.90;;;20.50;99.90;;;;;;4992524;28;20467;-71
2022/06/22 08:13:25;;;;;;;1999.90;999.90;;;20.60;99.90;;;;;;4994825;28;20393;-70
2022/06/22 08:15:54;;;;;;;1999.90;999.90;;;20.60;99.90;;;;;;4994620;28;20823;-72
2022/06/22 08:18:20;;;;;;;1999.90;999.90;;;20.60;99.90;;;;;;4994447;28;20411;-72
2022/06/22 08:20:49;;;;;;;1999.90;999.90;;;20.60;99.90;;;;;;4993723;28;20441;-72
2022/06/22 08:23:23;;;;;;;1999.90;999.90;;;20.70;99.90;;;;;;4994395;28;20184;-72
2022/06/22 08:25:50;;;;;;;1999.90;999.90;;;20.80;99.90;;;;;;4994252;28;20397;-72
2022/06/22 08:28:20;;;;;;;1999.90;999.90;;;20.80;99.90;;;;;;4994004;28;20736;-72
2022/06/22 08:30:49;;;;;;;1999.90;999.90;;;20.80;99.90;;;;;;4994440;28;20532;-72
2022/06/22 08:33:38;;;;;;;1999.90;999.90;;;20.90;99.90;;;;;;4994400;28;20785;-72
2022/06/22 08:36:13;;;;;;;1999.90;999.90;;;21.00;99.90;;;;;;4993989;28;20403;-73
2022/06/22 08:38:46;;;;;;;1999.90;999.90;;;21.10;99.90;;;;;;4994237;28;20918;-73
2022/06/22 08:41:33;;;;;;;1999.90;999.90;;;21.10;99.90;;;;;;4994205;28;20406;-71
2022/06/22 08:44:25;;;;;;;1999.90;999.90;;;21.30;99.90;;;;;;4993899;28;20417;-72
2022/06/22 08:47:12;;;;;;;1999.90;999.90;;;21.50;99.90;;;;;;4963723;28;20412;-72
2022/06/22 08:50:19;;;;;;;1999.90;999.90;;;21.80;99.90;;;;;;4993836;28;20902;-72
2022/06/22 08:53:22;;;;;;;1999.90;999.90;;;22.00;99.90;;;;;;4993950;28;20771;-72
2022/06/22 08:56:02;;;;;;;1999.90;999.90;;;22.00;99.90;;;;;;4993526;28;20478;-72
2022/06/22 08:58:38;;;;;;;1999.90;999.90;;;22.10;99.90;;;;;;4993891;28;20742;-72
2022/06/22 09:01:39;;;;;;;1999.90;999.90;;;22.20;99.90;;;;;;4993783;28;20383;-71
2022/06/22 09:04:22;;;;;;;1999.90;999.90;;;22.40;99.90;;;;;;4993910;28;20737;-72
2022/06/22 09:07:08;;;;;;;1999.90;999.90;;;22.60;99.90;;;;;;4993315;28;20416;-72
2022/06/22 09:09:37;;;;;;;1999.90;999.90;;;22.80;99.90;;;;;;4993516;28;20479;-71
2022/06/22 09:12:20;;;;;;;1999.90;999.90;;;22.90;99.90;;;;;;4993342;28;20495;-71
2022/06/22 09:15:12;;;;;;;1999.90;999.90;;;23.10;99.90;;;;;;4993354;28;20413;-71
2022/06/22 09:18:00;;;;;;;1999.90;999.90;;;23.20;99.90;;;;;;4993195;28;20397;-71
2022/06/22 09:20:46;;;;;;;1999.90;999.90;;;23.40;99.90;;;;;;4993249;28;20391;-72
2022/06/22 09:23:25;;;;;;;1999.90;999.90;;;23.50;99.90;;;;;;4993472;28;20803;-72
2022/06/22 09:26:08;;;;;;;1999.90;999.90;;;23.60;99.90;;;;;;4993049;28;20427;-72
2022/06/22 09:28:42;;;;;;;1999.90;999.90;;;23.80;99.90;;;;;;4993274;28;20397;-72
2022/06/22 09:31:36;;;;;;;1999.90;999.90;;;23.90;99.90;;;;;;4993367;28;20419;-73
2022/06/22 09:34:27;;;;;;;1999.90;999.90;;;24.10;99.90;;;;;;4993369;28;20391;-74
2022/06/22 09:37:22;;;;;;;1999.90;999.90;;;24.00;99.90;;;;;;4992773;28;20915;-72
2022/06/22 09:40:08;;;;;;;1999.90;999.90;;;23.90;99.90;;;;;;4992952;28;20463;-72
2022/06/22 09:42:56;;;;;;;1999.90;999.90;;;24.10;99.90;;;;;;4993014;28;20379;-72
2022/06/22 09:46:12;;;;;;;1999.90;999.90;;;24.30;99.90;;;;;;4993349;28;21104;-72
2022/06/22 09:48:43;;;;;;;1999.90;999.90;;;24.50;99.90;;;;;;4913841;29;20417;-72
2022/06/22 09:51:09;;;;;;;1999.90;999.90;;;24.50;99.90;;;;;;4913809;29;20439;-72
2022/06/22 09:56:19;;;;;;;1999.90;999.90;;;24.60;99.90;;;;;;4960087;28;20500;-72
2022/06/22 09:57:22;;;;;;;1999.90;999.90;;;24.90;99.90;;;;;;4992320;28;20177;-72
2022/06/22 10:00:02;;;;;;;1999.90;999.90;;;25.10;99.90;;;;;;4992721;28;20396;-72
2022/06/22 10:02:55;;;;;;;1999.90;999.90;;;25.30;99.90;;;;;;4992934;28;20419;-72
2022/06/22 10:05:26;;;;;;;1999.90;999.90;;;25.40;99.90;;;;;;4992639;28;20444;-72
2022/06/22 10:08:15;;;;;;;1999.90;999.90;;;25.70;99.90;;;;;;4992518;28;20470;-72
2022/06/22 10:11:02;;;;;;;1999.90;999.90;;;25.80;99.90;;;;;;4992647;28;20452;-72
2022/06/22 10:13:45;;;;;;;1999.90;999.90;;;26.00;99.90;;;;;;4992691;28;20947;-72
2022/06/22 10:16:25;;;;;;;1999.90;999.90;;;26.30;99.90;;;;;;4992336;28;20766;-72
2022/06/22 10:19:32;;;;;;;1999.90;999.90;;;26.40;98.30;;;;;;4992541;28;20381;-72
2022/06/22 10:22:15;;;;;;;1999.90;999.90;;;26.50;96.50;;;;;;4959680;28;20451;-73
2022/06/22 10:24:53;;;;;;;1999.90;999.90;;;26.70;96.90;;;;;;4992465;28;20409;-72
2022/06/22 10:27:46;;;;;;;1999.90;999.90;;;26.90;93.70;;;;;;4992529;28;20485;-72
2022/06/22 10:30:14;;;;;;;1999.90;999.90;;;26.90;94.30;;;;;;4992463;28;20451;-72
2022/06/22 10:33:08;;;;;;;1999.90;999.90;;;27.00;94.20;;;;;;4992352;28;20804;-71
2022/06/22 10:36:06;;;;;;;1999.90;999.90;;;27.00;92.40;;;;;;4992115;28;20428;-72
2022/06/22 10:38:38;;;;;;;1999.90;999.90;;;27.00;91.70;;;;;;4992211;28;20777;-72
2022/06/22 10:47:08;;;;;;;1999.90;999.90;;;27.10;82.30;;;;;;4996254;28;20813;-72
2022/06/22 10:49:57;;;;;;;1999.90;999.90;;;27.30;80.00;;;;;;4996159;28;20496;-72
2022/06/22 10:52:35;;;;;;;1999.90;999.90;;;27.40;78.20;;;;;;4996466;28;20948;-71
2022/06/22 10:55:34;;;;;;;1999.90;999.90;;;27.50;80.70;;;;;;4996515;28;20451;-72
2022/06/22 10:58:29;;;;;;;1999.90;999.90;;;27.70;74.50;;;;;;4996172;28;20794;-70
2022/06/22 11:01:25;;;;;;;1999.90;999.90;;;28.00;74.50;;;;;;4996077;28;20404;-70
2022/06/22 11:04:09;;;;;;;1999.90;999.90;;;28.30;71.00;;;;;;4996115;28;20456;-70
2022/06/22 11:06:46;;;;;;;1999.90;999.90;;;28.50;65.50;;;;;;4995502;28;20403;-70
2022/06/22 11:09:20;;;;;;;1999.90;999.90;;;28.60;59.70;;;;;;4995808;28;20401;-70
2022/06/22 11:12:13;;;;;;;1999.90;999.90;;;28.60;55.30;;;;;;4991255;28;20410;-69
2022/06/22 11:14:44;;;;;;;1999.90;999.90;;;28.70;57.20;;;;;;4995215;28;20416;-70
2022/06/22 11:17:43;;;;;;;1999.90;999.90;;;28.70;57.50;;;;;;4994323;28;20401;-70
2022/06/22 11:20:49;;;;;;;1999.90;999.90;;;28.80;56.00;;;;;;4995286;28;20415;-70
2022/06/22 11:23:31;;;;;;;1999.90;999.90;;;28.70;51.10;;;;;;4994971;28;20401;-70
2022/06/22 11:32:21;;;;;;;1999.90;999.90;;;29.10;52.20;;;;;;4994785;28;20412;-70
2022/06/22 11:35:16;;;;;;;1999.90;999.90;;;29.40;47.40;;;;;;4994918;28;20387;-70
2022/06/22 11:37:57;;;;;;;1999.90;999.90;;;29.60;47.60;;;;;;4981834;28;20479;-70
2022/06/22 11:40:37;;;;;;;1999.90;999.90;;;29.80;40.70;;;;;;4994528;28;20412;-70
2022/06/22 11:43:27;;;;;;;1999.90;999.90;;;29.90;39.00;;;;;;4994845;28;20428;-70
2022/06/22 11:46:05;;;;;;;1999.90;999.90;;;30.00;40.00;;;;;;4994733;28;20950;-70
2022/06/22 11:48:56;;;;;;;1999.90;999.90;;;30.10;39.70;;;;;;4994360;28;20762;-69
2022/06/22 11:52:06;;;;;;;1999.90;999.90;;;30.30;39.70;;;;;;4994673;28;20962;-70
2022/06/22 11:54:59;;;;;;;1999.90;999.90;;;30.40;40.20;;;;;;4979486;28;20492;-70
2022/06/22 11:57:53;;;;;;;1999.90;999.90;;;30.50;38.10;;;;;;4994800;28;20474;-70
2022/06/22 12:00:32;;;;;;;1999.90;999.90;;;30.50;39.90;;;;;;4994960;28;20910;-70
2022/06/22 12:03:17;;;;;;;1999.90;999.90;;;30.60;37.50;;;;;;4994131;28;20404;-70
2022/06/22 12:05:57;;;;;;;1999.90;999.90;;;30.80;33.00;;;;;;4994561;28;20475;-70
2022/06/22 12:08:48;;;;;;;1999.90;999.90;;;31.10;31.90;;;;;;4994483;28;20432;-70
2022/06/22 12:11:42;;;;;;;1999.90;999.90;;;31.50;28.80;;;;;;4994093;28;20456;-70
2022/06/22 12:17:32;;;;;;;1999.90;999.90;;;33.00;29.30;;;;;;5006286;28;20431;-69
2022/06/22 12:20:46;;;;;;;1999.90;999.90;;;33.90;24.60;;;;;;5008530;28;20411;-71
2022/06/22 12:23:37;;;;;;;1999.90;999.90;;;35.00;24.50;;;;;;4946382;28;20412;-70
2022/06/22 12:26:34;;;;;;;1999.90;999.90;;;35.60;20.00;;;;;;5003201;28;20436;-72
2022/06/22 12:29:06;;;;;;;1999.90;999.90;;;35.60;17.80;;;;;;5007835;28;20405;-69
2022/06/22 12:31:48;;;;;;;1999.90;999.90;;;35.60;18.20;;;;;;5009896;28;20717;-72
2022/06/22 12:35:00;;;;;;;1999.90;999.90;;;36.10;18.90;;;;;;5010281;28;21127;-70
2022/06/22 12:37:33;;;;;;;1999.90;999.90;;;36.60;17.80;;;;;;5009504;28;20949;-74
2022/06/22 12:40:07;;;;;;;1999.90;999.90;;;37.30;16.90;;;;;;4974019;28;20398;-71
2022/06/22 12:42:41;;;;;;;1999.90;999.90;;;37.00;14.60;;;;;;4973523;28;20416;-71
2022/06/22 12:45:45;;;;;;;1999.90;999.90;;;36.80;15.10;;;;;;4973629;28;20424;-70
2022/06/22 12:48:39;;;;;;;1999.90;999.90;;;36.50;15.60;;;;;;4973573;28;20402;-71
2022/06/22 12:51:10;;;;;;;1999.90;999.90;;;36.80;14.80;;;;;;4973453;28;20477;-71
2022/06/22 12:53:44;;;;;;;1999.90;999.90;;;37.40;13.40;;;;;;4973764;28;20406;-74
2022/06/22 12:56:15;;;;;;;1999.90;999.90;;;38.00;13.90;;;;;;4973704;28;20946;-74
2022/06/22 12:58:41;;;;;;;1999.90;999.90;;;38.40;13.10;;;;;;4975516;28;20433;-74
2022/06/22 13:01:07;;;;;;;1999.90;999.90;;;39.00;12.60;;;;;;4977739;28;20421;-74
2022/06/22 13:03:42;;;;;;;1999.90;999.90;;;39.20;11.90;;;;;;4979748;28;20835;-75
2022/06/22 13:06:08;;;;;;;1999.90;999.90;;;39.40;12.00;;;;;;4975876;28;20186;-75
2022/06/22 13:08:35;;;;;;;1999.90;999.90;;;39.70;11.10;;;;;;4983282;28;20418;-74
2022/06/22 13:11:11;;;;;;;1999.90;999.90;;;40.10;10.20;;;;;;4985189;28;20208;-74
2022/06/22 13:14:09;;;;;;;1999.90;999.90;;;40.30;9.50;;;;;;4988642;28;20410;-72
2022/06/22 13:16:59;;;;;;;1999.90;999.90;;;40.60;9.00;;;;;;4962234;28;20425;-74
2022/06/22 13:19:33;;;;;;;1999.90;999.90;;;41.00;9.20;;;;;;4999778;28;20402;-73